Time;durP1;ratioP1;P1;durP2;ratioP2;P2;SDS_P1;SDS_P2;PMS_P1;PMS_P2;Temp;Humidity;BMP_temperature;BMP_pressure;BME280_temperature;BME280_humidity;BME280_pressure;Samples;Min_cycle;Max_cycle;Signal;HPM_P1;HPM_P2
2022/04/17 00:01:02;;;;;;;;;;;4.80;93.40;;;3.96;65.07;98438.97;5065681;28;19916;-61
2022/04/17 00:03:28;;;;;;;;;;;4.70;93.70;;;3.88;65.82;98432.84;5066786;28;19913;-61
2022/04/17 00:05:54;;;;;;;;;;;4.70;94.00;;;3.95;65.89;98442.44;5066235;28;20136;-61
2022/04/17 00:08:19;;;;;;;;;;;4.70;94.40;;;3.90;65.98;98446.75;5066245;28;19916;-64
2022/04/17 00:10:48;;;;;;;;;;;4.60;94.10;;;3.89;65.74;98436.31;5064969;28;20017;-62
2022/04/17 00:13:14;;;;;;;;;;;4.60;94.00;;;3.87;66.50;98433.69;5056441;28;19917;-62
2022/04/17 00:15:40;;;;;;;;;;;4.60;94.30;;;3.78;67.28;98434.50;5063296;28;19966;-62
2022/04/17 00:18:06;;;;;;;;;;;4.50;94.60;;;3.82;67.60;98440.59;5066458;28;20019;-62
2022/04/17 00:20:32;;;;;;;;;;;4.50;94.80;;;3.80;68.51;98437.13;5063039;28;20076;-62
2022/04/17 00:22:58;;;;;;;;;;;4.50;95.10;;;3.78;67.56;98436.25;5067955;28;19916;-62
2022/04/17 00:25:23;;;;;;;;;;;4.50;94.90;;;3.67;66.41;98411.81;5071477;28;20011;-62
2022/04/17 00:27:49;;;;;;;;;;;4.50;94.50;;;3.82;66.07;98432.78;5062420;28;19974;-62
2022/04/17 00:30:15;;;;;;;;;;;4.50;94.30;;;3.82;66.97;98425.84;5066907;28;19962;-62
2022/04/17 00:32:41;;;;;;;;;;;4.50;94.70;;;3.74;67.58;98411.88;5058126;28;20358;-62
2022/04/17 00:35:08;;;;;;;;;;;4.50;94.90;;;3.79;66.98;98419.75;5067551;28;20003;-62
2022/04/17 00:37:34;;;;;;;;;;;4.50;94.80;;;3.81;66.60;98423.22;5066199;28;19921;-62
2022/04/17 00:40:00;;;;;;;;;;;4.50;94.70;;;3.79;66.29;98420.59;5062272;28;19912;-63
2022/04/17 00:42:25;;;;;;;;;;;4.50;94.50;;;3.77;66.99;98408.41;5066717;28;19932;-62
2022/04/17 00:44:51;;;;;;;;;;;4.50;94.70;;;3.73;67.15;98409.25;5061385;28;19928;-62
2022/04/17 00:47:17;;;;;;;;;;;4.50;94.80;;;3.66;67.34;98397.03;5064245;28;19912;-62
2022/04/17 00:49:43;;;;;;;;;;;4.50;94.90;;;3.67;67.53;98409.22;5064767;28;19912;-62
2022/04/17 00:52:09;;;;;;;;;;;4.40;94.90;;;3.59;68.66;98407.44;5062236;28;19924;-62
2022/04/17 00:54:38;;;;;;;;;;;4.30;95.40;;;3.57;68.93;98410.88;5055215;28;19912;-62
2022/04/17 00:57:06;;;;;;;;;;;4.30;95.60;;;3.51;70.28;98408.22;5063338;28;19951;-62
2022/04/17 00:59:32;;;;;;;;;;;4.20;96.00;;;3.43;71.32;98401.22;5064187;28;19938;-62
2022/04/17 01:01:58;;;;;;;;;;;4.10;96.40;;;3.35;71.85;98394.19;5055754;28;20368;-62
2022/04/17 01:04:23;;;;;;;;;;;4.10;96.70;;;3.34;71.73;98395.94;5053918;28;20024;-62
2022/04/17 01:06:49;;;;;;;;;;;4.00;96.80;;;3.29;72.44;98394.16;5066253;28;19916;-62
2022/04/17 01:09:15;;;;;;;;;;;4.00;97.00;;;3.23;73.26;98388.03;5063007;28;19949;-62
2022/04/17 01:11:41;;;;;;;;;;;4.00;97.40;;;3.20;74.04;98397.56;5059814;28;19913;-62
2022/04/17 01:14:08;;;;;;;;;;;3.90;97.60;;;3.14;74.49;98394.88;5062721;28;19926;-62
2022/04/17 01:16:36;;;;;;;;;;;3.90;97.90;;;3.07;74.87;98391.38;5065920;28;20388;-62
2022/04/17 01:19:11;;;;;;;;;;;3.80;98.10;;;3.02;75.03;98388.72;5068935;28;19920;-62
2022/04/17 01:21:38;;;;;;;;;;;3.80;98.30;;;2.94;75.57;98376.47;5069567;28;19957;-62
2022/04/17 01:26:58;;;;;;;;;;;3.60;98.50;;;2.88;76.05;98382.50;5063200;28;19927;-62
2022/04/17 01:29:26;;;;;;;;;;;3.60;98.80;;;2.79;76.46;98383.28;5066547;28;20403;-62
2022/04/17 01:31:52;;;;;;;;;;;3.50;99.00;;;2.74;76.57;98371.94;5069521;28;19923;-62
2022/04/17 01:34:18;;;;;;;;;;;3.50;99.20;;;2.72;77.36;98373.66;5070701;28;19918;-62
2022/04/17 01:36:44;;;;;;;;;;;3.40;99.40;;;2.67;77.17;98372.75;5069877;28;20008;-62
2022/04/17 01:39:11;;;;;;;;;;;3.40;99.60;;;2.69;76.76;98378.81;5067510;28;19963;-62
2022/04/17 01:41:37;;;;;;;;;;;3.40;99.40;;;2.69;76.72;98373.63;5061648;28;19913;-62
2022/04/17 01:44:03;;;;;;;;;;;3.40;99.40;;;2.65;77.21;98364.03;5069230;28;19970;-62
2022/04/17 01:46:29;;;;;;;;;;;3.40;99.70;;;2.59;77.75;98364.84;5073077;28;19912;-62
2022/04/17 01:48:55;;;;;;;;;;;3.40;99.90;;;2.56;78.75;98361.34;5067892;28;20424;-62
2022/04/17 01:51:21;;;;;;;;;;;3.30;99.90;;;2.52;79.73;98363.03;5068619;28;19916;-62
2022/04/17 01:53:47;;;;;;;;;;;3.20;99.90;;;2.48;80.10;98354.31;5067565;28;19967;-62
2022/04/17 01:56:13;;;;;;;;;;;3.20;99.90;;;2.42;80.41;98355.97;5059512;28;19913;-62
2022/04/17 01:58:38;;;;;;;;;;;3.20;99.90;;;2.36;80.72;98351.59;5067335;28;20547;-62
2022/04/17 02:01:05;;;;;;;;;;;3.10;99.90;;;2.34;80.93;98365.47;5065745;28;19916;-62
2022/04/17 02:03:30;;;;;;;;;;;3.10;99.90;;;2.30;80.99;98359.34;5063736;28;20434;-62
2022/04/17 02:05:56;;;;;;;;;;;3.00;99.90;;;2.20;81.27;98347.94;5068920;28;19921;-62
2022/04/17 02:08:21;;;;;;;;;;;3.00;99.90;;;2.23;81.71;98349.72;5070113;28;20399;-62
2022/04/17 02:10:47;;;;;;;;;;;3.00;99.90;;;2.20;82.08;98349.69;5065331;28;19940;-62
2022/04/17 02:13:13;;;;;;;;;;;2.90;99.90;;;2.17;82.19;98345.31;5068577;28;19919;-62
2022/04/17 02:15:38;;;;;;;;;;;2.90;99.90;;;2.13;82.61;98343.50;5063881;28;20264;-62
2022/04/17 02:18:05;;;;;;;;;;;2.90;99.90;;;2.12;82.38;98341.78;5068911;28;19920;-62
2022/04/17 02:20:31;;;;;;;;;;;2.90;99.90;;;2.18;81.69;98343.59;5064899;28;19960;-62
2022/04/17 02:22:56;;;;;;;;;;;2.90;99.90;;;2.22;80.98;98337.53;5063372;28;19944;-62
2022/04/17 02:25:22;;;;;;;;;;;3.00;99.90;;;2.23;80.75;98341.91;5066405;28;20370;-62
2022/04/17 02:27:48;;;;;;;;;;;3.00;99.90;;;2.17;80.94;98334.00;5067125;28;20054;-63
2022/04/17 02:30:13;;;;;;;;;;;3.00;99.90;;;2.24;81.11;98339.31;5064291;28;20021;-62
2022/04/17 02:32:40;;;;;;;;;;;3.00;99.90;;;2.21;80.89;98333.22;5065863;28;19917;-62
2022/04/17 02:35:06;;;;;;;;;;;3.00;99.90;;;2.21;80.77;98334.06;5067225;28;19912;-62
2022/04/17 02:37:32;;;;;;;;;;;3.00;99.90;;;2.19;80.90;98333.19;5066241;28;19924;-62
2022/04/17 02:39:57;;;;;;;;;;;3.00;99.90;;;2.20;80.52;98323.66;5067615;28;19916;-62
2022/04/17 02:42:23;;;;;;;;;;;3.00;99.90;;;2.05;80.90;98304.41;5063967;28;19968;-63
2022/04/17 02:44:48;;;;;;;;;;;2.90;99.90;;;2.09;81.51;98313.97;5057368;28;19959;-62
2022/04/17 02:49:58;;;;;;;;;;;2.90;99.90;;;2.03;82.92;98315.66;5065117;28;19919;-62
2022/04/17 02:52:24;;;;;;;;;;;2.80;99.90;;;2.02;83.35;98306.97;5083161;22;19924;-54
2022/04/17 02:54:50;;;;;;;;;;;2.80;99.90;;;1.83;84.03;98289.38;5084999;28;20007;-55
2022/04/17 02:57:15;;;;;;;;;;;2.70;99.90;;;1.93;83.78;98314.66;5086685;28;19927;-53
2022/04/17 02:59:41;;;;;;;;;;;2.70;99.90;;;1.86;84.28;98297.22;5086891;28;19991;-52
2022/04/17 03:07:35;;;;;;;;;;;2.50;99.90;;;1.73;85.11;98292.75;5078311;28;20378;-53
2022/04/17 03:10:02;;;;;;;;;;;2.50;99.90;;;1.70;85.51;98294.44;5085556;28;19916;-54
2022/04/17 03:12:28;;;;;;;;;;;2.50;99.90;;;1.69;85.49;98294.44;5079267;28;19916;-54
2022/04/17 03:14:53;;;;;;;;;;;2.40;99.90;;;1.68;84.72;98290.94;5078606;28;19912;-55
2022/04/17 03:17:19;;;;;;;;;;;2.40;99.90;;;1.69;84.00;98297.91;5087531;28;19943;-54
2022/04/17 03:19:45;;;;;;;;;;;2.40;99.90;;;1.67;83.71;98298.72;5085336;28;20006;-51
2022/04/17 03:22:11;;;;;;;;;;;2.40;99.90;;;1.66;84.76;98295.25;5077162;28;19916;-54
2022/04/17 03:24:36;;;;;;;;;;;2.40;99.90;;;1.62;85.46;98293.47;5087921;28;20004;-53
2022/04/17 03:27:02;;;;;;;;;;;2.40;99.90;;;1.56;85.77;98289.91;5083368;28;20260;-54
2022/04/17 03:29:28;;;;;;;;;;;2.30;99.90;;;1.55;86.29;98294.25;5078906;28;19916;-54
2022/04/17 03:31:53;;;;;;;;;;;2.30;99.90;;;1.53;86.55;98295.97;5077727;28;19970;-54
2022/04/17 03:34:19;;;;;;;;;;;2.30;99.90;;;1.50;86.48;98301.09;5081014;28;19916;-54
2022/04/17 03:36:46;;;;;;;;;;;2.30;99.90;;;1.45;86.75;98298.44;5084149;28;19916;-53
2022/04/17 03:39:12;;;;;;;;;;;2.20;99.90;;;1.41;87.36;98306.19;5078850;28;19916;-53
2022/04/17 03:41:37;;;;;;;;;;;2.20;99.90;;;1.38;87.61;98298.34;5083727;28;20387;-54
2022/04/17 03:44:04;;;;;;;;;;;2.10;99.90;;;1.33;88.05;98308.69;5076643;28;19916;-54
2022/04/17 03:46:30;;;;;;;;;;;2.10;99.90;;;1.28;88.64;98311.22;5083558;28;19912;-54
2022/04/17 03:48:55;;;;;;;;;;;2.10;99.90;;;1.28;88.41;98306.00;5079209;28;19912;-53
2022/04/17 03:51:21;;;;;;;;;;;2.10;99.90;;;1.36;87.20;98315.63;5075251;28;20274;-55
2022/04/17 03:53:46;;;;;;;;;;;2.10;99.90;;;1.38;86.73;98300.94;5081261;28;19966;-54
2022/04/17 03:56:12;;;;;;;;;;;2.20;99.90;;;1.47;85.77;98303.66;5079906;28;19916;-54
2022/04/17 03:58:38;;;;;;;;;;;2.20;99.90;;;1.53;84.99;98303.75;5077058;28;19920;-54
2022/04/17 04:01:03;;;;;;;;;;;2.30;99.90;;;1.55;85.15;98304.66;5077364;28;19931;-53
2022/04/17 04:03:29;;;;;;;;;;;2.30;99.90;;;1.60;84.65;98307.28;5079074;28;19923;-53
2022/04/17 04:05:55;;;;;;;;;;;2.30;99.90;;;1.63;83.85;98297.81;5077037;28;19916;-53
2022/04/17 04:08:21;;;;;;;;;;;2.40;99.90;;;1.67;83.35;98303.91;5076444;28;19912;-55
2022/04/17 04:10:47;;;;;;;;;;;2.40;99.90;;;1.60;82.63;98292.59;5084248;28;19989;-56
2022/04/17 04:13:12;;;;;;;;;;;2.50;99.90;;;1.72;82.25;98297.06;5078701;28;19947;-54
2022/04/17 04:15:38;;;;;;;;;;;2.50;99.90;;;1.70;82.64;98298.75;5080730;28;20383;-54
2022/04/17 04:18:04;;;;;;;;;;;2.50;99.90;;;1.69;82.52;98291.84;5074552;28;19917;-54
2022/04/17 04:20:29;;;;;;;;;;;2.50;99.90;;;1.68;82.64;98293.53;5079192;28;20337;-53
2022/04/17 04:22:55;;;;;;;;;;;2.50;99.90;;;1.67;82.76;98289.22;5070884;28;19951;-53
2022/04/17 04:25:21;;;;;;;;;;;2.50;99.90;;;1.65;83.43;98293.53;5079819;28;19916;-55
2022/04/17 04:30:31;;;;;;;;;;;2.40;99.90;;;1.58;84.05;98290.81;5086859;28;19919;-54
2022/04/17 04:32:57;;;;;;;;;;;2.40;99.90;;;1.59;84.21;98289.97;5080523;28;19912;-55
2022/04/17 04:35:24;;;;;;;;;;;2.40;99.90;;;1.52;83.65;98266.47;5081565;28;19916;-54
2022/04/17 04:37:49;;;;;;;;;;;2.40;99.90;;;1.68;83.02;98283.13;5078730;28;20280;-55
2022/04/17 04:40:16;;;;;;;;;;;2.50;99.90;;;1.64;82.94;98278.75;5080884;28;19916;-54
2022/04/17 04:42:41;;;;;;;;;;;2.50;99.90;;;1.70;82.87;98289.22;5084146;28;20002;-54
2022/04/17 04:47:52;;;;;;;;;;;2.50;99.90;;;1.82;81.35;98295.47;5079153;28;19938;-55
2022/04/17 04:50:17;;;;;;;;;;;2.60;99.90;;;1.74;81.45;98279.72;5082301;28;19916;-54
2022/04/17 04:52:43;;;;;;;;;;;2.60;99.90;;;1.86;81.58;98305.91;5088180;28;19920;-53
2022/04/17 04:55:09;;;;;;;;;;;2.60;99.90;;;1.77;82.35;98289.31;5077551;28;20215;-54
2022/04/17 04:57:37;;;;;;;;;;;2.60;99.90;;;1.88;82.54;98311.13;5082231;28;19975;-53
2022/04/17 05:00:05;;;;;;;;;;;2.60;99.90;;;1.90;82.53;98296.41;5078695;28;20371;-55
2022/04/17 05:02:31;;;;;;;;;;;2.70;99.90;;;1.93;81.86;98303.38;5080134;28;19913;-54
2022/04/17 05:04:56;;;;;;;;;;;2.70;99.90;;;1.97;81.98;98292.16;5077272;28;20065;-53
2022/04/17 05:07:22;;;;;;;;;;;2.70;99.90;;;2.06;80.45;98297.47;5083942;28;19963;-54
2022/04/17 05:09:47;;;;;;;;;;;2.80;99.90;;;2.12;80.55;98304.47;5083331;28;19916;-54
2022/04/17 05:12:14;;;;;;;;;;;2.90;99.90;;;2.15;80.96;98296.69;5083498;28;20215;-54
2022/04/17 05:14:41;;;;;;;;;;;2.90;99.90;;;2.17;80.91;98293.28;5082165;28;20395;-53
2022/04/17 05:17:08;;;;;;;;;;;2.90;99.90;;;2.19;80.55;98295.84;5075711;28;19977;-54
2022/04/17 05:19:34;;;;;;;;;;;2.90;99.90;;;2.24;80.30;98291.56;5081124;28;20425;-53
2022/04/17 05:22:02;;;;;;;;;;;3.00;99.90;;;2.29;79.91;98298.56;5088326;28;19920;-51
2022/04/17 05:24:28;;;;;;;;;;;3.10;99.90;;;2.36;78.83;98294.31;5082678;28;20077;-54
2022/04/17 05:26:53;;;;;;;;;;;3.10;99.90;;;2.46;78.83;98287.47;5082767;28;19919;-53
2022/04/17 05:29:19;;;;;;;;;;;3.20;99.90;;;2.53;77.92;98288.38;5085706;28;19916;-53
2022/04/17 05:31:46;;;;;;;;;;;3.30;99.90;;;2.60;77.03;98296.28;5081277;28;19912;-54
2022/04/17 05:34:12;;;;;;;;;;;3.30;99.90;;;2.78;75.35;98300.78;5081912;28;19912;-54
2022/04/17 05:36:37;;;;;;;;;;;3.50;99.90;;;2.87;74.74;98299.97;5077346;28;19923;-53
2022/04/17 05:39:04;;;;;;;;;;;3.60;99.90;;;2.94;73.42;98306.13;5083438;28;20015;-55
2022/04/17 05:41:30;;;;;;;;;;;3.70;99.90;;;3.05;72.79;98297.53;5084433;28;19912;-53
2022/04/17 05:43:59;;;;;;;;;;;3.80;99.90;;;3.17;71.70;98303.69;5084116;28;19918;-53
2022/04/17 05:46:26;;;;;;;;;;;3.90;99.90;;;3.20;72.06;98296.75;5076357;28;19912;-54
2022/04/17 05:48:51;;;;;;;;;;;4.00;99.90;;;3.32;70.74;98293.38;5085319;28;19916;-54
2022/04/17 05:51:17;;;;;;;;;;;4.00;99.90;;;3.37;71.50;98304.66;5087719;28;19915;-54
2022/04/17 05:53:44;;;;;;;;;;;4.10;99.90;;;3.45;70.88;98304.75;5087703;28;22273;-54
2022/04/17 05:56:10;;;;;;;;;;;4.20;99.90;;;3.57;69.79;98309.13;5083902;28;19923;-55
2022/04/17 05:58:36;;;;;;;;;;;4.30;99.90;;;3.64;69.59;98303.09;5088035;28;19920;-55
2022/04/17 06:01:02;;;;;;;;;;;4.40;99.90;;;3.71;69.00;98310.09;5078172;28;19931;-55
2022/04/17 06:03:28;;;;;;;;;;;4.40;99.90;;;3.80;69.29;98311.88;5083513;28;20348;-55
2022/04/17 06:05:54;;;;;;;;;;;4.50;99.90;;;3.89;68.68;98319.72;5083516;28;19955;-54
2022/04/17 06:08:19;;;;;;;;;;;4.60;99.90;;;3.93;67.89;98315.41;5083823;28;20124;-54
2022/04/17 06:10:45;;;;;;;;;;;4.70;99.90;;;4.05;66.18;98318.06;5083691;28;19961;-54
2022/04/17 06:13:10;;;;;;;;;;;4.80;99.90;;;4.09;66.93;98309.41;5086589;28;20061;-53
2022/04/17 06:15:36;;;;;;;;;;;4.80;99.90;;;4.18;67.37;98305.91;5085087;28;19912;-54
2022/04/17 06:18:02;;;;;;;;;;;4.90;99.90;;;4.27;65.37;98302.47;5084551;28;19933;-54
2022/04/17 06:20:27;;;;;;;;;;;5.00;99.90;;;4.35;64.50;98308.59;5086484;28;20375;-54
2022/04/17 06:22:53;;;;;;;;;;;5.10;99.90;;;4.42;64.74;98307.75;5081965;28;19956;-54
2022/04/17 06:25:19;;;;;;;;;;;5.10;99.90;;;4.46;65.57;98309.47;5085690;28;19916;-50
2022/04/17 06:27:46;;;;;;;;;;;5.20;99.90;;;4.52;64.30;98308.63;5084297;28;20287;-52
2022/04/17 06:30:14;;;;;;;;;;;5.20;99.90;;;4.54;64.45;98306.88;5084983;28;20033;-51
2022/04/17 06:32:39;;;;;;;;;;;5.30;99.90;;;4.58;64.33;98304.28;5085512;28;20295;-51
2022/04/17 06:35:06;;;;;;;;;;;5.30;99.90;;;4.62;62.96;98297.31;5085981;28;19920;-49
2022/04/17 06:37:51;;;;;;;;;;;5.40;99.50;;;4.74;62.29;98301.69;5084130;28;20256;-51
2022/04/17 06:40:18;;;;;;;;;;;5.50;99.10;;;4.81;62.09;98295.59;5085398;28;19912;-52
2022/04/17 06:42:45;;;;;;;;;;;5.60;99.00;;;4.96;61.48;98295.59;5084297;28;20372;-54
2022/04/17 06:45:10;;;;;;;;;;;5.60;98.70;;;5.06;61.61;98306.03;5084332;28;19912;-53
2022/04/17 06:47:36;;;;;;;;;;;5.70;98.80;;;5.16;60.93;98294.69;5085127;28;20356;-52
2022/04/17 06:50:02;;;;;;;;;;;5.90;98.50;;;5.29;58.29;98301.69;5085185;28;20359;-53
2022/04/17 06:52:28;;;;;;;;;;;6.00;97.70;;;5.35;58.42;98299.03;5085592;28;19966;-53
2022/04/17 06:54:53;;;;;;;;;;;6.10;97.30;;;5.44;58.14;98294.69;5084460;28;19960;-54
2022/04/17 06:57:19;;;;;;;;;;;6.20;97.20;;;5.49;57.63;98290.28;5085828;28;19920;-54
2022/04/17 06:59:44;;;;;;;;;;;6.20;97.00;;;5.65;59.36;98291.13;5084485;28;20325;-52
2022/04/17 07:02:10;;;;;;;;;;;6.40;97.80;;;5.70;58.41;98289.34;5084242;28;19920;-55
2022/04/17 07:04:36;;;;;;;;;;;6.40;97.20;;;5.79;57.12;98291.94;5085537;28;20012;-55
2022/04/17 07:07:01;;;;;;;;;;;6.60;96.70;;;6.04;56.07;98291.88;5084968;28;19927;-53
2022/04/17 07:09:27;;;;;;;;;;;6.70;96.30;;;6.00;56.58;98288.41;5084245;28;19920;-54
2022/04/17 07:11:54;;;;;;;;;;;6.70;96.20;;;6.09;56.45;98282.25;5082488;28;19928;-53
2022/04/17 07:14:21;;;;;;;;;;;6.80;96.20;;;6.18;55.79;98286.59;5082811;28;19927;-53
2022/04/17 07:16:47;;;;;;;;;;;6.90;95.80;;;6.28;55.08;98286.53;5083241;28;20378;-55
2022/04/17 07:19:15;;;;;;;;;;;6.90;95.50;;;6.33;55.52;98281.25;5085560;28;19912;-53
2022/04/17 07:21:41;;;;;;;;;;;7.00;95.40;;;6.38;54.95;98281.22;5083309;28;19938;-53
2022/04/17 07:24:07;;;;;;;;;;;7.10;95.20;;;6.42;54.27;98278.56;5084977;28;19920;-53
2022/04/17 07:26:32;;;;;;;;;;;7.10;94.80;;;6.60;53.69;98274.94;5084067;28;20760;-53
2022/04/17 07:28:58;;;;;;;;;;;7.20;94.50;;;6.62;54.01;98265.34;5083811;28;20632;-53
2022/04/17 07:31:24;;;;;;;;;;;7.30;94.70;;;6.85;55.02;98262.53;5085651;28;19920;-54
2022/04/17 07:33:50;;;;;;;;;;;7.40;94.90;;;7.11;52.39;98255.34;5084322;28;19999;-54
2022/04/17 07:36:15;;;;;;;;;;;7.60;94.00;;;7.15;53.37;98262.28;5085331;28;20267;-53
2022/04/17 07:38:41;;;;;;;;;;;7.80;94.40;;;7.22;50.93;98256.97;5083115;28;20299;-54
2022/04/17 07:41:07;;;;;;;;;;;7.90;92.60;;;7.34;51.31;98245.47;5085526;28;19927;-53
2022/04/17 07:43:32;;;;;;;;;;;8.00;92.90;;;7.57;50.82;98241.72;5082758;28;20062;-51
2022/04/17 07:45:58;;;;;;;;;;;8.20;92.70;;;7.68;51.11;98245.09;5081879;28;20193;-53
2022/04/17 07:48:24;;;;;;;;;;;8.30;92.70;;;7.84;51.07;98249.28;5083814;28;20413;-52
2022/04/17 07:50:52;;;;;;;;;;;8.40;92.80;;;7.99;49.86;98252.59;5081511;28;19920;-49
2022/04/17 07:53:18;;;;;;;;;;;8.50;92.10;;;8.12;48.28;98250.69;5084521;28;19986;-54
2022/04/17 07:55:44;;;;;;;;;;;8.70;91.60;;;8.24;48.74;98247.88;5083277;28;20407;-53
2022/04/17 07:58:15;;;;;;;;;;;8.80;90.50;;;8.39;47.50;98254.69;5083682;28;19928;-52
2022/04/17 08:00:51;;;;;;;;;;;8.90;90.30;;;8.50;47.33;98244.88;5084006;28;20015;-49
2022/04/17 08:06:01;;;;;;;;;;;9.10;88.80;;;8.69;46.13;98236.75;5083542;28;19916;-49
2022/04/17 08:08:28;;;;;;;;;;;9.30;88.00;;;8.76;45.30;98246.28;5083755;28;19935;-53
2022/04/17 08:10:54;;;;;;;;;;;9.30;86.70;;;8.79;44.94;98236.56;5081851;28;20011;-51
2022/04/17 08:13:19;;;;;;;;;;;9.40;84.40;;;8.90;44.65;98232.88;5083103;28;19943;-54
2022/04/17 08:15:45;;;;;;;;;;;9.40;84.90;;;9.05;43.80;98239.66;5083672;28;19968;-51
2022/04/17 08:18:11;;;;;;;;;;;9.60;84.50;;;9.12;44.43;98236.88;5084388;28;19924;-53
2022/04/17 08:20:36;;;;;;;;;;;9.60;84.60;;;9.16;43.77;98241.19;5084287;28;19920;-54
2022/04/17 08:23:02;;;;;;;;;;;9.70;83.10;;;9.40;42.97;98246.03;5084105;28;19987;-53
2022/04/17 08:25:28;;;;;;;;;;;9.80;82.50;;;9.30;44.18;98238.31;5083087;28;19916;-53
2022/04/17 08:27:55;;;;;;;;;;;9.90;83.20;;;9.50;44.43;98242.34;5083990;28;19966;-54
2022/04/17 08:30:22;;;;;;;;;;;9.90;83.80;;;9.45;45.37;98242.41;5084089;28;19926;-54
2022/04/17 08:32:48;;;;;;;;;;;10.00;85.90;;;9.50;44.32;98234.44;5084764;28;19916;-55
2022/04/17 08:35:14;;;;;;;;;;;10.00;82.70;;;9.37;45.31;98218.00;5084401;28;19916;-57
2022/04/17 08:37:40;;;;;;;;;;;10.00;84.40;;;9.63;46.15;98243.81;5082393;28;19920;-57
2022/04/17 08:40:06;;;;;;;;;;;10.10;86.00;;;9.76;44.97;98241.81;5084952;28;20307;-56
2022/04/17 08:42:32;;;;;;;;;;;10.30;84.50;;;9.82;43.68;98240.84;5082774;28;20355;-56
2022/04/17 08:44:58;;;;;;;;;;;10.30;82.90;;;9.83;44.02;98232.88;5084934;28;20014;-56
2022/04/17 08:47:25;;;;;;;;;;;10.30;82.30;;;9.89;42.96;98229.28;5084838;28;20002;-56
2022/04/17 08:49:53;;;;;;;;;;;10.40;81.00;;;9.77;44.26;98196.13;5083574;28;19920;-57
2022/04/17 08:54:48;;;;;;;;;;;10.40;82.20;;;9.86;42.95;98205.63;5055925;28;19925;-63
2022/04/17 08:57:13;;;;;;;;;;;10.40;80.90;;;9.84;44.10;98196.88;5057997;28;19921;-63
2022/04/17 08:59:39;;;;;;;;;;;10.40;81.00;;;9.87;44.25;98196.78;5058774;28;20202;-63
2022/04/17 09:02:10;;;;;;;;;;;10.40;82.20;;;9.87;44.26;98186.25;5054967;28;20007;-63
2022/04/17 09:04:41;;;;;;;;;;;10.40;81.80;;;9.92;44.22;98192.28;5053475;28;19919;-63
2022/04/17 09:07:07;;;;;;;;;;;10.40;82.50;;;9.99;44.26;98182.50;5050543;28;19916;-63
2022/04/17 09:09:54;;;;;;;;;;;10.50;82.10;;;10.02;44.26;98174.53;5052632;28;19932;-63
2022/04/17 09:12:25;;;;;;;;;;;10.50;81.70;;;10.06;43.25;98177.03;5050463;28;20167;-63
2022/04/17 09:14:51;;;;;;;;;;;10.60;80.60;;;10.09;42.85;98178.75;5049977;28;20339;-63
2022/04/17 09:17:18;;;;;;;;;;;10.60;79.50;;;10.18;42.15;98156.59;5050693;28;20300;-63
2022/04/17 09:19:44;;;;;;;;;;;10.70;79.30;;;10.21;42.59;98159.16;5052662;28;19975;-63
2022/04/17 09:22:10;;;;;;;;;;;10.70;78.80;;;10.26;43.16;98157.28;5051446;28;20373;-63
2022/04/17 09:24:37;;;;;;;;;;;10.80;79.50;;;10.42;43.23;98149.91;5052357;28;19916;-63
2022/04/17 09:27:04;;;;;;;;;;;10.90;80.20;;;10.51;42.08;98136.47;5052412;28;19919;-63
2022/04/17 09:29:33;;;;;;;;;;;11.00;78.20;;;10.68;40.54;98138.72;5052192;28;19924;-63
2022/04/17 09:32:08;;;;;;;;;;;11.10;75.80;;;10.76;40.12;98139.38;5050689;28;20360;-63
2022/04/17 09:34:50;;;;;;;;;;;11.10;76.10;;;10.77;39.53;98138.47;5053354;28;20029;-63
2022/04/17 09:37:16;;;;;;;;;;;11.20;73.70;;;10.81;39.56;98128.69;5052918;28;19991;-63
2022/04/17 09:39:42;;;;;;;;;;;11.30;73.00;;;10.89;40.05;98146.06;5056566;28;19932;-61
2022/04/17 09:42:08;;;;;;;;;;;11.40;74.00;;;10.88;38.31;98144.31;5054034;28;19989;-61
2022/04/17 09:44:38;;;;;;;;;;;11.40;71.40;;;10.95;38.99;98144.19;5055068;28;20363;-61
2022/04/17 09:47:05;;;;;;;;;;;11.40;72.20;;;11.00;38.93;98140.50;5052548;28;19951;-61
2022/04/17 09:49:30;;;;;;;;;;;11.50;71.30;;;11.07;38.08;98135.91;5054231;28;20382;-60
2022/04/17 09:52:09;;;;;;;;;;;11.50;70.80;;;10.99;38.42;98127.34;5053257;28;19913;-61
2022/04/17 09:54:35;;;;;;;;;;;11.50;69.70;;;11.03;40.22;98134.25;5056190;28;19943;-61
2022/04/17 09:57:01;;;;;;;;;;;11.50;72.30;;;11.08;40.96;98133.22;5054137;28;20254;-61
2022/04/17 09:59:27;;;;;;;;;;;11.60;74.40;;;11.19;40.22;98138.22;5055826;28;19960;-61
2022/04/17 10:01:55;;;;;;;;;;;11.60;73.30;;;11.40;38.88;98138.53;5052032;28;19943;-61
2022/04/17 10:04:24;;;;;;;;;;;11.70;72.30;;;11.19;38.55;98118.88;5052143;28;20338;-61
2022/04/17 10:06:50;;;;;;;;;;;11.70;70.10;;;11.08;39.11;98121.81;5050320;28;19919;-61
2022/04/17 10:09:16;;;;;;;;;;;11.60;70.80;;;11.07;39.84;98110.41;5055072;28;20019;-61
2022/04/17 10:11:42;;;;;;;;;;;11.60;71.90;;;11.07;39.05;98113.03;5050595;28;19967;-61
2022/04/17 10:14:08;;;;;;;;;;;11.60;70.80;;;11.19;38.63;98117.09;5054745;28;19927;-62
2022/04/17 10:16:34;;;;;;;;;;;11.70;70.70;;;11.28;37.26;98110.69;5055206;28;19916;-63
2022/04/17 10:19:05;;;;;;;;;;;11.70;67.90;;;11.41;37.66;98111.19;5053722;28;19932;-63
2022/04/17 10:21:34;;;;;;;;;;;11.80;68.50;;;11.44;38.74;98111.97;5055566;28;19913;-64
2022/04/17 10:24:02;;;;;;;;;;;11.80;69.60;;;11.53;38.70;98108.22;5053340;28;19966;-64
2022/04/17 10:26:29;;;;;;;;;;;11.90;69.90;;;11.56;38.95;98112.56;5054666;28;19924;-64
2022/04/17 10:28:57;;;;;;;;;;;12.00;70.30;;;11.63;38.66;98107.03;5054749;28;19917;-64
2022/04/17 10:31:22;;;;;;;;;;;12.10;70.20;;;11.80;37.82;98106.50;5052288;28;20002;-64
2022/04/17 10:34:07;;;;;;;;;;;12.20;68.70;;;11.61;36.56;98098.28;5055810;28;20363;-64
2022/04/17 10:37:11;;;;;;;;;;;12.20;66.10;;;11.64;36.92;98107.88;5052738;28;19913;-64
2022/04/17 10:39:39;;;;;;;;;;;12.10;66.60;;;11.70;36.43;98097.16;4992589;28;19924;-65
2022/04/17 10:42:09;;;;;;;;;;;12.20;65.80;;;11.66;37.44;98103.41;5041857;28;19967;-64
2022/04/17 10:44:41;;;;;;;;;;;12.20;66.70;;;11.67;36.21;98089.31;5055072;28;19995;-64
2022/04/17 10:47:21;;;;;;;;;;;12.20;65.30;;;11.66;36.59;98084.94;5050085;28;20085;-64
2022/04/17 10:49:54;;;;;;;;;;;12.20;65.40;;;11.74;37.84;98082.06;5055320;28;19917;-64
2022/04/17 10:52:31;;;;;;;;;;;12.20;67.10;;;11.84;35.19;98075.56;5049660;28;19919;-63
2022/04/17 10:55:09;;;;;;;;;;;12.30;64.10;;;11.91;36.14;98076.28;5055247;28;20367;-64
2022/04/17 10:57:45;;;;;;;;;;;12.40;63.60;;;12.06;36.32;98072.28;5053436;28;19924;-63
2022/04/17 11:00:28;;;;;;;;;;;12.50;65.50;;;12.31;35.48;98067.03;5053405;28;19920;-63
2022/04/17 11:02:58;;;;;;;;;;;12.60;65.60;;;12.13;35.29;98065.88;5050309;28;20014;-64
2022/04/17 11:08:26;;;;;;;;;;;12.60;63.40;;;12.17;34.04;98064.88;5053696;28;20323;-64
2022/04/17 11:10:57;;;;;;;;;;;12.60;61.00;;;12.07;33.81;98034.34;5051261;28;19928;-63
2022/04/17 11:13:26;;;;;;;;;;;12.60;59.80;;;12.20;34.56;98051.53;5052464;28;19927;-63
2022/04/17 11:15:55;;;;;;;;;;;12.70;60.70;;;12.26;35.26;98046.06;5052454;28;19950;-63
2022/04/17 11:18:27;;;;;;;;;;;12.70;62.50;;;12.35;33.45;98045.75;5052474;28;20019;-64
2022/04/17 11:20:54;;;;;;;;;;;12.80;58.90;;;12.37;33.39;98051.84;5053416;28;19912;-64
2022/04/17 11:23:48;;;;;;;;;;;12.90;59.30;;;12.63;33.61;98059.81;5053470;28;19913;-63
2022/04/17 11:26:14;;;;;;;;;;;12.90;59.70;;;12.64;34.53;98051.81;5048176;28;19981;-64
2022/04/17 11:28:39;;;;;;;;;;;13.00;60.80;;;12.87;33.43;98048.38;5052698;28;20015;-64
2022/04/17 11:31:05;;;;;;;;;;;13.20;59.80;;;12.94;33.83;98038.44;5048509;28;19956;-64
2022/04/17 11:33:30;;;;;;;;;;;13.40;60.40;;;12.95;34.18;98024.25;5052027;28;19917;-64
2022/04/17 11:35:57;;;;;;;;;;;13.40;60.30;;;13.07;33.92;98028.25;5052295;28;19917;-64
2022/04/17 11:38:23;;;;;;;;;;;13.50;60.10;;;13.14;33.43;98027.09;5053220;28;20002;-64
2022/04/17 11:40:49;;;;;;;;;;;13.50;59.00;;;13.17;33.69;98030.50;5050701;28;19912;-64
2022/04/17 11:43:16;;;;;;;;;;;13.60;59.40;;;13.21;33.86;98014.47;5052892;28;20778;-64
2022/04/17 11:45:43;;;;;;;;;;;13.60;59.40;;;13.28;31.97;98013.31;5050649;28;19916;-64
2022/04/17 11:48:11;;;;;;;;;;;13.70;56.90;;;13.22;32.68;98001.16;5051049;28;20443;-64
2022/04/17 11:50:38;;;;;;;;;;;13.70;57.30;;;13.25;34.26;98000.22;5051401;28;20008;-65
2022/04/17 11:53:05;;;;;;;;;;;13.80;58.50;;;13.39;33.35;98010.28;5053535;28;19925;-64